sensor_id;sensor_type;location;lat;lon;timestamp;P1;durP1;ratioP1;P2;durP2;ratioP2
68484;SDS011;55472;50.060;21.960;2023-05-07T00:02:00;16.90;;;8.23;;
68484;SDS011;55472;50.060;21.960;2023-05-07T00:04:26;16.58;;;8.80;;
68484;SDS011;55472;50.060;21.960;2023-05-07T00:06:53;14.80;;;8.18;;
68484;SDS011;55472;50.060;21.960;2023-05-07T00:09:20;15.25;;;8.00;;
68484;SDS011;55472;50.060;21.960;2023-05-07T00:11:46;14.52;;;7.60;;
68484;SDS011;55472;50.060;21.960;2023-05-07T00:14:13;15.67;;;7.67;;
68484;SDS011;55472;50.060;21.960;2023-05-07T00:16:39;15.35;;;7.55;;
68484;SDS011;55472;50.060;21.960;2023-05-07T00:19:05;13.70;;;7.45;;
68484;SDS011;55472;50.060;21.960;2023-05-07T00:21:31;13.77;;;7.05;;
68484;SDS011;55472;50.060;21.960;2023-05-07T00:23:57;12.93;;;7.03;;
68484;SDS011;55472;50.060;21.960;2023-05-07T00:26:23;15.87;;;7.37;;
68484;SDS011;55472;50.060;21.960;2023-05-07T00:28:50;15.85;;;6.97;;
68484;SDS011;55472;50.060;21.960;2023-05-07T00:31:16;14.13;;;7.22;;
68484;SDS011;55472;50.060;21.960;2023-05-07T00:33:42;14.45;;;7.55;;
68484;SDS011;55472;50.060;21.960;2023-05-07T00:36:08;14.48;;;7.40;;
68484;SDS011;55472;50.060;21.960;2023-05-07T00:38:35;17.40;;;7.50;;
68484;SDS011;55472;50.060;21.960;2023-05-07T00:41:01;13.45;;;7.20;;
68484;SDS011;55472;50.060;21.960;2023-05-07T00:43:28;18.88;;;8.25;;
68484;SDS011;55472;50.060;21.960;2023-05-07T00:45:54;13.60;;;7.53;;
68484;SDS011;55472;50.060;21.960;2023-05-07T00:48:21;17.98;;;9.27;;
68484;SDS011;55472;50.060;21.960;2023-05-07T00:50:49;17.50;;;8.40;;
68484;SDS011;55472;50.060;21.960;2023-05-07T00:53:16;15.57;;;8.00;;
68484;SDS011;55472;50.060;21.960;2023-05-07T00:55:42;16.35;;;7.78;;
68484;SDS011;55472;50.060;21.960;2023-05-07T00:58:09;16.02;;;8.10;;
68484;SDS011;55472;50.060;21.960;2023-05-07T01:00:35;14.77;;;7.00;;
68484;SDS011;55472;50.060;21.960;2023-05-07T01:03:01;15.33;;;7.37;;
68484;SDS011;55472;50.060;21.960;2023-05-07T01:05:28;15.52;;;7.32;;
68484;SDS011;55472;50.060;21.960;2023-05-07T01:07:56;16.02;;;7.30;;
68484;SDS011;55472;50.060;21.960;2023-05-07T01:10:23;17.65;;;7.60;;
68484;SDS011;55472;50.060;21.960;2023-05-07T01:12:50;13.02;;;6.82;;
68484;SDS011;55472;50.060;21.960;2023-05-07T01:15:17;13.97;;;7.33;;
68484;SDS011;55472;50.060;21.960;2023-05-07T01:17:44;13.57;;;6.95;;
68484;SDS011;55472;50.060;21.960;2023-05-07T01:20:10;15.15;;;7.50;;
68484;SDS011;55472;50.060;21.960;2023-05-07T01:22:37;16.85;;;7.30;;
68484;SDS011;55472;50.060;21.960;2023-05-07T01:25:04;16.95;;;7.40;;
68484;SDS011;55472;50.060;21.960;2023-05-07T01:27:33;16.70;;;7.20;;
68484;SDS011;55472;50.060;21.960;2023-05-07T01:30:02;16.13;;;6.88;;
68484;SDS011;55472;50.060;21.960;2023-05-07T01:35:15;16.63;;;7.72;;
68484;SDS011;55472;50.060;21.960;2023-05-07T01:37:46;18.17;;;8.32;;
68484;SDS011;55472;50.060;21.960;2023-05-07T01:40:13;17.20;;;8.10;;
68484;SDS011;55472;50.060;21.960;2023-05-07T01:42:40;16.92;;;7.88;;
68484;SDS011;55472;50.060;21.960;2023-05-07T01:45:09;17.98;;;7.45;;
68484;SDS011;55472;50.060;21.960;2023-05-07T01:47:36;15.43;;;7.55;;
68484;SDS011;55472;50.060;21.960;2023-05-07T01:50:04;15.52;;;7.63;;
68484;SDS011;55472;50.060;21.960;2023-05-07T01:52:36;13.43;;;6.70;;
68484;SDS011;55472;50.060;21.960;2023-05-07T01:55:04;13.95;;;7.10;;
68484;SDS011;55472;50.060;21.960;2023-05-07T01:57:32;14.70;;;6.93;;
68484;SDS011;55472;50.060;21.960;2023-05-07T01:59:58;14.80;;;7.40;;
68484;SDS011;55472;50.060;21.960;2023-05-07T02:02:24;15.68;;;6.97;;
68484;SDS011;55472;50.060;21.960;2023-05-07T02:04:50;15.13;;;7.23;;
68484;SDS011;55472;50.060;21.960;2023-05-07T02:07:16;14.73;;;7.18;;
68484;SDS011;55472;50.060;21.960;2023-05-07T02:09:43;17.50;;;7.60;;
68484;SDS011;55472;50.060;21.960;2023-05-07T02:12:09;20.45;;;7.50;;
68484;SDS011;55472;50.060;21.960;2023-05-07T02:14:35;15.13;;;6.85;;
68484;SDS011;55472;50.060;21.960;2023-05-07T02:17:01;16.43;;;8.07;;
68484;SDS011;55472;50.060;21.960;2023-05-07T02:19:27;17.65;;;7.78;;
68484;SDS011;55472;50.060;21.960;2023-05-07T02:21:53;18.05;;;7.20;;
68484;SDS011;55472;50.060;21.960;2023-05-07T02:24:19;17.15;;;6.68;;
68484;SDS011;55472;50.060;21.960;2023-05-07T02:26:45;15.97;;;7.47;;
68484;SDS011;55472;50.060;21.960;2023-05-07T02:29:12;14.53;;;6.80;;
68484;SDS011;55472;50.060;21.960;2023-05-07T02:31:38;14.32;;;7.13;;
68484;SDS011;55472;50.060;21.960;2023-05-07T02:34:04;15.10;;;6.72;;
68484;SDS011;55472;50.060;21.960;2023-05-07T02:36:30;13.88;;;6.60;;
68484;SDS011;55472;50.060;21.960;2023-05-07T02:38:57;14.13;;;6.70;;
68484;SDS011;55472;50.060;21.960;2023-05-07T02:41:23;14.60;;;6.87;;
68484;SDS011;55472;50.060;21.960;2023-05-07T02:43:49;15.30;;;6.50;;
68484;SDS011;55472;50.060;21.960;2023-05-07T02:46:15;13.57;;;6.50;;
68484;SDS011;55472;50.060;21.960;2023-05-07T02:48:41;13.00;;;6.40;;
68484;SDS011;55472;50.060;21.960;2023-05-07T02:51:08;13.75;;;6.28;;
68484;SDS011;55472;50.060;21.960;2023-05-07T02:53:34;13.10;;;6.27;;
68484;SDS011;55472;50.060;21.960;2023-05-07T02:56:00;13.05;;;6.30;;
68484;SDS011;55472;50.060;21.960;2023-05-07T02:58:28;13.02;;;5.97;;
68484;SDS011;55472;50.060;21.960;2023-05-07T03:00:54;14.40;;;6.00;;
68484;SDS011;55472;50.060;21.960;2023-05-07T03:03:20;14.15;;;5.32;;
68484;SDS011;55472;50.060;21.960;2023-05-07T03:05:47;13.73;;;5.67;;
68484;SDS011;55472;50.060;21.960;2023-05-07T03:08:13;10.63;;;5.40;;
68484;SDS011;55472;50.060;21.960;2023-05-07T03:10:39;13.60;;;5.00;;
68484;SDS011;55472;50.060;21.960;2023-05-07T03:13:06;13.60;;;5.18;;
68484;SDS011;55472;50.060;21.960;2023-05-07T03:15:32;12.55;;;5.07;;
68484;SDS011;55472;50.060;21.960;2023-05-07T03:17:58;13.43;;;4.57;;
68484;SDS011;55472;50.060;21.960;2023-05-07T03:20:24;12.70;;;4.90;;
68484;SDS011;55472;50.060;21.960;2023-05-07T03:22:50;11.52;;;4.95;;
68484;SDS011;55472;50.060;21.960;2023-05-07T03:25:16;13.43;;;5.07;;
68484;SDS011;55472;50.060;21.960;2023-05-07T03:27:43;13.30;;;5.13;;
68484;SDS011;55472;50.060;21.960;2023-05-07T03:30:09;14.37;;;5.00;;
68484;SDS011;55472;50.060;21.960;2023-05-07T03:32:36;15.35;;;5.03;;
68484;SDS011;55472;50.060;21.960;2023-05-07T03:35:02;13.55;;;5.05;;
68484;SDS011;55472;50.060;21.960;2023-05-07T03:37:29;12.70;;;5.00;;
68484;SDS011;55472;50.060;21.960;2023-05-07T03:39:55;13.67;;;5.00;;
68484;SDS011;55472;50.060;21.960;2023-05-07T03:42:22;17.47;;;5.53;;
68484;SDS011;55472;50.060;21.960;2023-05-07T03:44:48;14.75;;;5.65;;
68484;SDS011;55472;50.060;21.960;2023-05-07T03:47:15;13.27;;;5.05;;
68484;SDS011;55472;50.060;21.960;2023-05-07T03:49:41;13.43;;;5.10;;
68484;SDS011;55472;50.060;21.960;2023-05-07T03:52:07;13.82;;;5.60;;
68484;SDS011;55472;50.060;21.960;2023-05-07T03:54:33;12.30;;;4.97;;
68484;SDS011;55472;50.060;21.960;2023-05-07T03:56:59;15.15;;;4.82;;
68484;SDS011;55472;50.060;21.960;2023-05-07T03:59:25;15.93;;;5.20;;
68484;SDS011;55472;50.060;21.960;2023-05-07T04:01:52;14.50;;;5.63;;
68484;SDS011;55472;50.060;21.960;2023-05-07T04:04:18;12.35;;;5.10;;
68484;SDS011;55472;50.060;21.960;2023-05-07T04:06:45;13.40;;;4.70;;
68484;SDS011;55472;50.060;21.960;2023-05-07T04:09:11;14.27;;;5.40;;
68484;SDS011;55472;50.060;21.960;2023-05-07T04:11:38;11.90;;;5.10;;
68484;SDS011;55472;50.060;21.960;2023-05-07T04:14:05;13.77;;;5.38;;
68484;SDS011;55472;50.060;21.960;2023-05-07T04:16:32;14.77;;;4.78;;
68484;SDS011;55472;50.060;21.960;2023-05-07T04:19:00;13.67;;;5.37;;
68484;SDS011;55472;50.060;21.960;2023-05-07T04:21:26;16.15;;;5.70;;
68484;SDS011;55472;50.060;21.960;2023-05-07T04:23:52;13.70;;;5.45;;
68484;SDS011;55472;50.060;21.960;2023-05-07T04:26:19;13.73;;;5.63;;
68484;SDS011;55472;50.060;21.960;2023-05-07T04:28:46;14.35;;;5.82;;
68484;SDS011;55472;50.060;21.960;2023-05-07T04:31:12;12.57;;;5.67;;
68484;SDS011;55472;50.060;21.960;2023-05-07T04:33:38;18.08;;;5.80;;
68484;SDS011;55472;50.060;21.960;2023-05-07T04:36:05;16.73;;;5.82;;
68484;SDS011;55472;50.060;21.960;2023-05-07T04:38:31;14.00;;;6.35;;
68484;SDS011;55472;50.060;21.960;2023-05-07T04:41:02;17.48;;;5.93;;
68484;SDS011;55472;50.060;21.960;2023-05-07T04:43:30;14.53;;;5.97;;
68484;SDS011;55472;50.060;21.960;2023-05-07T04:45:56;13.23;;;5.80;;
68484;SDS011;55472;50.060;21.960;2023-05-07T04:48:23;15.02;;;5.50;;
68484;SDS011;55472;50.060;21.960;2023-05-07T04:50:49;14.57;;;5.95;;
68484;SDS011;55472;50.060;21.960;2023-05-07T04:53:16;12.60;;;5.30;;
68484;SDS011;55472;50.060;21.960;2023-05-07T04:55:44;17.23;;;5.60;;
68484;SDS011;55472;50.060;21.960;2023-05-07T04:58:10;13.60;;;5.28;;
68484;SDS011;55472;50.060;21.960;2023-05-07T05:00:38;13.52;;;5.18;;
68484;SDS011;55472;50.060;21.960;2023-05-07T05:03:04;11.25;;;5.10;;
68484;SDS011;55472;50.060;21.960;2023-05-07T05:05:34;11.82;;;4.90;;
68484;SDS011;55472;50.060;21.960;2023-05-07T05:08:00;12.47;;;5.20;;
68484;SDS011;55472;50.060;21.960;2023-05-07T05:10:26;11.05;;;4.93;;
68484;SDS011;55472;50.060;21.960;2023-05-07T05:12:52;12.43;;;5.50;;
68484;SDS011;55472;50.060;21.960;2023-05-07T05:15:20;11.32;;;4.95;;
68484;SDS011;55472;50.060;21.960;2023-05-07T05:17:46;12.27;;;4.97;;
68484;SDS011;55472;50.060;21.960;2023-05-07T05:20:13;11.47;;;4.97;;
68484;SDS011;55472;50.060;21.960;2023-05-07T05:22:39;15.00;;;5.43;;
68484;SDS011;55472;50.060;21.960;2023-05-07T05:25:07;11.52;;;4.85;;
68484;SDS011;55472;50.060;21.960;2023-05-07T05:27:34;12.43;;;4.78;;
68484;SDS011;55472;50.060;21.960;2023-05-07T05:30:01;10.88;;;4.60;;
68484;SDS011;55472;50.060;21.960;2023-05-07T05:32:27;10.83;;;4.60;;
68484;SDS011;55472;50.060;21.960;2023-05-07T05:34:54;13.30;;;4.70;;
68484;SDS011;55472;50.060;21.960;2023-05-07T05:37:20;11.68;;;5.07;;
68484;SDS011;55472;50.060;21.960;2023-05-07T05:39:47;11.05;;;4.53;;
68484;SDS011;55472;50.060;21.960;2023-05-07T05:42:13;14.80;;;5.03;;
68484;SDS011;55472;50.060;21.960;2023-05-07T05:44:39;11.90;;;4.83;;
68484;SDS011;55472;50.060;21.960;2023-05-07T05:47:05;11.60;;;4.93;;
68484;SDS011;55472;50.060;21.960;2023-05-07T05:49:32;10.23;;;4.70;;
68484;SDS011;55472;50.060;21.960;2023-05-07T05:51:58;14.38;;;4.25;;
68484;SDS011;55472;50.060;21.960;2023-05-07T05:54:24;13.85;;;5.15;;
68484;SDS011;55472;50.060;21.960;2023-05-07T05:56:50;10.07;;;5.00;;
68484;SDS011;55472;50.060;21.960;2023-05-07T05:59:17;14.20;;;5.53;;
68484;SDS011;55472;50.060;21.960;2023-05-07T06:01:43;11.40;;;4.38;;
68484;SDS011;55472;50.060;21.960;2023-05-07T06:04:09;10.88;;;4.88;;
68484;SDS011;55472;50.060;21.960;2023-05-07T06:06:35;10.43;;;4.55;;
68484;SDS011;55472;50.060;21.960;2023-05-07T06:09:02;11.17;;;5.10;;
68484;SDS011;55472;50.060;21.960;2023-05-07T06:11:28;11.57;;;4.55;;
68484;SDS011;55472;50.060;21.960;2023-05-07T06:13:54;9.23;;;4.07;;
68484;SDS011;55472;50.060;21.960;2023-05-07T06:16:20;11.38;;;4.38;;
68484;SDS011;55472;50.060;21.960;2023-05-07T06:18:47;10.55;;;4.40;;
68484;SDS011;55472;50.060;21.960;2023-05-07T06:21:13;8.87;;;4.30;;
68484;SDS011;55472;50.060;21.960;2023-05-07T06:23:40;9.38;;;3.78;;
68484;SDS011;55472;50.060;21.960;2023-05-07T06:26:06;11.35;;;4.00;;
68484;SDS011;55472;50.060;21.960;2023-05-07T06:28:33;9.27;;;3.90;;
68484;SDS011;55472;50.060;21.960;2023-05-07T06:31:15;9.98;;;3.80;;
68484;SDS011;55472;50.060;21.960;2023-05-07T06:33:48;10.00;;;3.83;;
68484;SDS011;55472;50.060;21.960;2023-05-07T06:36:15;9.18;;;4.35;;
68484;SDS011;55472;50.060;21.960;2023-05-07T06:38:41;10.10;;;4.07;;
68484;SDS011;55472;50.060;21.960;2023-05-07T06:41:07;10.20;;;4.10;;
68484;SDS011;55472;50.060;21.960;2023-05-07T06:43:34;9.55;;;4.57;;
68484;SDS011;55472;50.060;21.960;2023-05-07T06:46:01;11.20;;;3.90;;
68484;SDS011;55472;50.060;21.960;2023-05-07T06:48:27;8.73;;;4.22;;
68484;SDS011;55472;50.060;21.960;2023-05-07T06:50:53;11.35;;;4.65;;
68484;SDS011;55472;50.060;21.960;2023-05-07T06:53:21;9.93;;;4.30;;
68484;SDS011;55472;50.060;21.960;2023-05-07T06:55:47;11.07;;;4.53;;
68484;SDS011;55472;50.060;21.960;2023-05-07T06:58:13;10.10;;;4.30;;
68484;SDS011;55472;50.060;21.960;2023-05-07T07:00:39;10.43;;;4.38;;
68484;SDS011;55472;50.060;21.960;2023-05-07T07:03:06;10.60;;;4.40;;
68484;SDS011;55472;50.060;21.960;2023-05-07T07:05:33;9.55;;;4.38;;
68484;SDS011;55472;50.060;21.960;2023-05-07T07:07:59;8.98;;;4.15;;
68484;SDS011;55472;50.060;21.960;2023-05-07T07:10:25;13.23;;;4.40;;
68484;SDS011;55472;50.060;21.960;2023-05-07T07:12:51;9.90;;;3.95;;
68484;SDS011;55472;50.060;21.960;2023-05-07T07:15:18;8.75;;;3.78;;
68484;SDS011;55472;50.060;21.960;2023-05-07T07:17:46;10.95;;;3.95;;
68484;SDS011;55472;50.060;21.960;2023-05-07T07:20:13;8.55;;;4.45;;
68484;SDS011;55472;50.060;21.960;2023-05-07T07:22:39;11.77;;;4.30;;
68484;SDS011;55472;50.060;21.960;2023-05-07T07:25:05;11.95;;;4.40;;
68484;SDS011;55472;50.060;21.960;2023-05-07T07:27:32;10.93;;;4.13;;
68484;SDS011;55472;50.060;21.960;2023-05-07T07:29:58;11.60;;;3.60;;
68484;SDS011;55472;50.060;21.960;2023-05-07T07:32:25;12.63;;;4.00;;
68484;SDS011;55472;50.060;21.960;2023-05-07T07:34:51;8.27;;;3.90;;
68484;SDS011;55472;50.060;21.960;2023-05-07T07:37:17;8.50;;;4.05;;
68484;SDS011;55472;50.060;21.960;2023-05-07T07:39:43;11.05;;;4.35;;
68484;SDS011;55472;50.060;21.960;2023-05-07T07:42:10;11.10;;;4.35;;
68484;SDS011;55472;50.060;21.960;2023-05-07T07:44:36;10.75;;;4.20;;
68484;SDS011;55472;50.060;21.960;2023-05-07T07:47:05;9.60;;;4.00;;
68484;SDS011;55472;50.060;21.960;2023-05-07T07:49:34;8.25;;;3.53;;
68484;SDS011;55472;50.060;21.960;2023-05-07T07:52:00;9.20;;;3.88;;
68484;SDS011;55472;50.060;21.960;2023-05-07T07:54:27;10.07;;;3.90;;
68484;SDS011;55472;50.060;21.960;2023-05-07T07:56:54;12.77;;;3.95;;
68484;SDS011;55472;50.060;21.960;2023-05-07T07:59:20;8.93;;;3.67;;
68484;SDS011;55472;50.060;21.960;2023-05-07T08:01:46;9.40;;;3.75;;
68484;SDS011;55472;50.060;21.960;2023-05-07T08:04:15;9.20;;;3.90;;
68484;SDS011;55472;50.060;21.960;2023-05-07T08:06:41;10.23;;;4.45;;
68484;SDS011;55472;50.060;21.960;2023-05-07T08:09:07;12.10;;;4.40;;
68484;SDS011;55472;50.060;21.960;2023-05-07T08:11:34;8.30;;;3.90;;
68484;SDS011;55472;50.060;21.960;2023-05-07T08:14:00;9.60;;;3.58;;
68484;SDS011;55472;50.060;21.960;2023-05-07T08:16:26;9.35;;;4.05;;
68484;SDS011;55472;50.060;21.960;2023-05-07T08:18:53;10.15;;;4.25;;
68484;SDS011;55472;50.060;21.960;2023-05-07T08:21:19;10.23;;;3.88;;
68484;SDS011;55472;50.060;21.960;2023-05-07T08:23:45;11.77;;;4.13;;
68484;SDS011;55472;50.060;21.960;2023-05-07T08:26:12;9.15;;;3.97;;
68484;SDS011;55472;50.060;21.960;2023-05-07T08:28:38;10.73;;;3.95;;
68484;SDS011;55472;50.060;21.960;2023-05-07T08:31:05;11.00;;;3.90;;
68484;SDS011;55472;50.060;21.960;2023-05-07T08:33:31;9.50;;;4.20;;
68484;SDS011;55472;50.060;21.960;2023-05-07T08:35:57;8.13;;;3.90;;
68484;SDS011;55472;50.060;21.960;2023-05-07T08:38:23;9.77;;;4.07;;
68484;SDS011;55472;50.060;21.960;2023-05-07T08:40:49;9.93;;;4.00;;
68484;SDS011;55472;50.060;21.960;2023-05-07T08:43:15;8.73;;;3.83;;
68484;SDS011;55472;50.060;21.960;2023-05-07T08:45:44;9.23;;;3.67;;
68484;SDS011;55472;50.060;21.960;2023-05-07T08:48:15;9.52;;;3.67;;
68484;SDS011;55472;50.060;21.960;2023-05-07T08:50:42;8.82;;;3.70;;
68484;SDS011;55472;50.060;21.960;2023-05-07T08:53:08;12.95;;;4.03;;
68484;SDS011;55472;50.060;21.960;2023-05-07T08:55:35;10.63;;;4.10;;
68484;SDS011;55472;50.060;21.960;2023-05-07T08:58:01;7.53;;;3.77;;
68484;SDS011;55472;50.060;21.960;2023-05-07T09:00:27;9.18;;;4.00;;
68484;SDS011;55472;50.060;21.960;2023-05-07T09:02:53;8.02;;;3.72;;
68484;SDS011;55472;50.060;21.960;2023-05-07T09:05:20;8.18;;;3.92;;
68484;SDS011;55472;50.060;21.960;2023-05-07T09:07:46;9.70;;;4.43;;
68484;SDS011;55472;50.060;21.960;2023-05-07T09:10:13;8.30;;;4.37;;
68484;SDS011;55472;50.060;21.960;2023-05-07T09:12:39;8.23;;;3.92;;
68484;SDS011;55472;50.060;21.960;2023-05-07T09:15:06;7.28;;;3.92;;
68484;SDS011;55472;50.060;21.960;2023-05-07T09:17:33;8.35;;;4.25;;
68484;SDS011;55472;50.060;21.960;2023-05-07T09:20:05;10.27;;;4.88;;
68484;SDS011;55472;50.060;21.960;2023-05-07T09:22:32;10.13;;;4.93;;
68484;SDS011;55472;50.060;21.960;2023-05-07T09:24:59;7.43;;;4.10;;
68484;SDS011;55472;50.060;21.960;2023-05-07T09:27:25;7.55;;;3.67;;
68484;SDS011;55472;50.060;21.960;2023-05-07T09:29:52;7.28;;;3.80;;
68484;SDS011;55472;50.060;21.960;2023-05-07T09:32:18;13.93;;;6.15;;
68484;SDS011;55472;50.060;21.960;2023-05-07T09:34:44;9.97;;;4.27;;
68484;SDS011;55472;50.060;21.960;2023-05-07T09:37:12;27.25;;;9.85;;
68484;SDS011;55472;50.060;21.960;2023-05-07T09:39:43;14.15;;;5.47;;
68484;SDS011;55472;50.060;21.960;2023-05-07T09:42:15;11.93;;;5.00;;
68484;SDS011;55472;50.060;21.960;2023-05-07T09:44:43;22.45;;;8.20;;
68484;SDS011;55472;50.060;21.960;2023-05-07T09:47:09;12.20;;;5.47;;
68484;SDS011;55472;50.060;21.960;2023-05-07T09:49:38;8.90;;;3.97;;
68484;SDS011;55472;50.060;21.960;2023-05-07T09:52:07;13.35;;;5.55;;
68484;SDS011;55472;50.060;21.960;2023-05-07T09:54:36;13.48;;;4.47;;
68484;SDS011;55472;50.060;21.960;2023-05-07T09:57:05;10.55;;;4.53;;
68484;SDS011;55472;50.060;21.960;2023-05-07T09:59:32;9.50;;;3.97;;
68484;SDS011;55472;50.060;21.960;2023-05-07T10:02:00;8.68;;;3.45;;
68484;SDS011;55472;50.060;21.960;2023-05-07T10:04:28;7.55;;;3.70;;
68484;SDS011;55472;50.060;21.960;2023-05-07T10:06:56;8.90;;;3.33;;
68484;SDS011;55472;50.060;21.960;2023-05-07T10:09:23;10.95;;;3.70;;
68484;SDS011;55472;50.060;21.960;2023-05-07T10:11:51;8.03;;;3.40;;
68484;SDS011;55472;50.060;21.960;2023-05-07T10:14:19;7.82;;;3.70;;
68484;SDS011;55472;50.060;21.960;2023-05-07T10:16:46;6.10;;;3.20;;
68484;SDS011;55472;50.060;21.960;2023-05-07T10:19:14;9.13;;;4.05;;
68484;SDS011;55472;50.060;21.960;2023-05-07T10:21:44;13.07;;;4.40;;
68484;SDS011;55472;50.060;21.960;2023-05-07T10:24:35;8.00;;;3.60;;
68484;SDS011;55472;50.060;21.960;2023-05-07T10:27:04;9.20;;;3.30;;
68484;SDS011;55472;50.060;21.960;2023-05-07T10:35:20;10.32;;;5.40;;
68484;SDS011;55472;50.060;21.960;2023-05-07T10:37:50;7.73;;;4.07;;
68484;SDS011;55472;50.060;21.960;2023-05-07T10:40:17;7.07;;;3.25;;
68484;SDS011;55472;50.060;21.960;2023-05-07T10:42:55;7.25;;;3.33;;
68484;SDS011;55472;50.060;21.960;2023-05-07T10:45:25;6.60;;;3.38;;
68484;SDS011;55472;50.060;21.960;2023-05-07T10:48:11;7.07;;;3.33;;
68484;SDS011;55472;50.060;21.960;2023-05-07T10:50:42;7.23;;;3.30;;
68484;SDS011;55472;50.060;21.960;2023-05-07T10:55:44;6.65;;;3.28;;
68484;SDS011;55472;50.060;21.960;2023-05-07T11:00:55;8.45;;;3.22;;
68484;SDS011;55472;50.060;21.960;2023-05-07T11:03:27;8.33;;;3.40;;
68484;SDS011;55472;50.060;21.960;2023-05-07T11:06:13;7.25;;;3.50;;
68484;SDS011;55472;50.060;21.960;2023-05-07T11:14:13;6.57;;;3.10;;
68484;SDS011;55472;50.060;21.960;2023-05-07T11:16:41;9.70;;;3.30;;
68484;SDS011;55472;50.060;21.960;2023-05-07T11:19:09;6.72;;;3.40;;
68484;SDS011;55472;50.060;21.960;2023-05-07T11:21:39;10.75;;;5.35;;
68484;SDS011;55472;50.060;21.960;2023-05-07T11:24:07;8.20;;;3.83;;
68484;SDS011;55472;50.060;21.960;2023-05-07T11:26:46;7.55;;;2.80;;
68484;SDS011;55472;50.060;21.960;2023-05-07T11:29:19;7.73;;;3.60;;
68484;SDS011;55472;50.060;21.960;2023-05-07T11:31:50;7.88;;;3.17;;
68484;SDS011;55472;50.060;21.960;2023-05-07T11:34:24;9.13;;;3.75;;
68484;SDS011;55472;50.060;21.960;2023-05-07T11:36:52;6.85;;;3.20;;
68484;SDS011;55472;50.060;21.960;2023-05-07T11:39:39;6.22;;;2.92;;
68484;SDS011;55472;50.060;21.960;2023-05-07T11:42:05;7.80;;;3.20;;
68484;SDS011;55472;50.060;21.960;2023-05-07T11:44:41;6.30;;;2.97;;
68484;SDS011;55472;50.060;21.960;2023-05-07T11:47:11;6.45;;;3.15;;
68484;SDS011;55472;50.060;21.960;2023-05-07T11:49:45;7.15;;;3.40;;
68484;SDS011;55472;50.060;21.960;2023-05-07T11:52:16;8.10;;;2.88;;
68484;SDS011;55472;50.060;21.960;2023-05-07T11:57:21;6.53;;;2.85;;
68484;SDS011;55472;50.060;21.960;2023-05-07T11:59:52;6.43;;;2.78;;
68484;SDS011;55472;50.060;21.960;2023-05-07T12:02:19;7.03;;;3.22;;
68484;SDS011;55472;50.060;21.960;2023-05-07T12:04:46;6.32;;;3.28;;
68484;SDS011;55472;50.060;21.960;2023-05-07T12:07:12;10.00;;;2.73;;
68484;SDS011;55472;50.060;21.960;2023-05-07T12:09:45;7.15;;;3.15;;
68484;SDS011;55472;50.060;21.960;2023-05-07T12:12:13;6.18;;;3.00;;
68484;SDS011;55472;50.060;21.960;2023-05-07T12:14:43;6.97;;;2.85;;
68484;SDS011;55472;50.060;21.960;2023-05-07T12:17:12;5.68;;;2.53;;
68484;SDS011;55472;50.060;21.960;2023-05-07T12:19:40;6.50;;;2.50;;
68484;SDS011;55472;50.060;21.960;2023-05-07T12:22:09;6.88;;;3.05;;
68484;SDS011;55472;50.060;21.960;2023-05-07T12:27:22;5.88;;;2.70;;
68484;SDS011;55472;50.060;21.960;2023-05-07T12:29:49;5.65;;;2.65;;
68484;SDS011;55472;50.060;21.960;2023-05-07T12:32:16;10.40;;;2.70;;
68484;SDS011;55472;50.060;21.960;2023-05-07T12:34:45;6.32;;;3.10;;
68484;SDS011;55472;50.060;21.960;2023-05-07T12:37:12;7.40;;;2.58;;
68484;SDS011;55472;50.060;21.960;2023-05-07T12:39:43;6.40;;;2.40;;
68484;SDS011;55472;50.060;21.960;2023-05-07T12:42:18;6.57;;;2.33;;
68484;SDS011;55472;50.060;21.960;2023-05-07T12:44:50;6.27;;;2.67;;
68484;SDS011;55472;50.060;21.960;2023-05-07T12:47:17;5.55;;;2.20;;
68484;SDS011;55472;50.060;21.960;2023-05-07T12:49:43;6.45;;;2.60;;
68484;SDS011;55472;50.060;21.960;2023-05-07T12:52:11;6.88;;;2.83;;
68484;SDS011;55472;50.060;21.960;2023-05-07T12:54:38;7.28;;;2.70;;
68484;SDS011;55472;50.060;21.960;2023-05-07T12:57:05;5.97;;;2.37;;
68484;SDS011;55472;50.060;21.960;2023-05-07T12:59:37;6.13;;;2.22;;
68484;SDS011;55472;50.060;21.960;2023-05-07T13:02:06;4.93;;;2.05;;
68484;SDS011;55472;50.060;21.960;2023-05-07T13:04:33;6.18;;;2.35;;
68484;SDS011;55472;50.060;21.960;2023-05-07T13:06:59;5.20;;;2.38;;
68484;SDS011;55472;50.060;21.960;2023-05-07T13:09:26;4.93;;;2.30;;
68484;SDS011;55472;50.060;21.960;2023-05-07T13:11:54;6.45;;;2.13;;
68484;SDS011;55472;50.060;21.960;2023-05-07T13:14:21;6.22;;;2.30;;
68484;SDS011;55472;50.060;21.960;2023-05-07T13:16:47;6.45;;;2.00;;
68484;SDS011;55472;50.060;21.960;2023-05-07T13:19:14;9.13;;;3.03;;
68484;SDS011;55472;50.060;21.960;2023-05-07T13:21:40;7.60;;;2.23;;
68484;SDS011;55472;50.060;21.960;2023-05-07T13:24:06;6.20;;;2.22;;
68484;SDS011;55472;50.060;21.960;2023-05-07T13:26:33;4.82;;;1.92;;
68484;SDS011;55472;50.060;21.960;2023-05-07T13:28:59;4.75;;;2.00;;
68484;SDS011;55472;50.060;21.960;2023-05-07T13:31:26;4.10;;;1.85;;
68484;SDS011;55472;50.060;21.960;2023-05-07T13:33:52;6.63;;;2.20;;
68484;SDS011;55472;50.060;21.960;2023-05-07T13:36:18;5.25;;;2.10;;
68484;SDS011;55472;50.060;21.960;2023-05-07T13:38:44;4.47;;;1.70;;
68484;SDS011;55472;50.060;21.960;2023-05-07T13:41:11;5.45;;;1.70;;
68484;SDS011;55472;50.060;21.960;2023-05-07T13:43:38;5.13;;;1.90;;
68484;SDS011;55472;50.060;21.960;2023-05-07T13:46:04;5.43;;;1.60;;
68484;SDS011;55472;50.060;21.960;2023-05-07T13:48:30;5.25;;;1.60;;
68484;SDS011;55472;50.060;21.960;2023-05-07T13:50:56;6.30;;;2.10;;
68484;SDS011;55472;50.060;21.960;2023-05-07T13:53:22;4.30;;;1.70;;
68484;SDS011;55472;50.060;21.960;2023-05-07T13:55:49;5.00;;;1.70;;
68484;SDS011;55472;50.060;21.960;2023-05-07T13:58:14;4.90;;;1.67;;
68484;SDS011;55472;50.060;21.960;2023-05-07T14:00:41;4.28;;;1.50;;
68484;SDS011;55472;50.060;21.960;2023-05-07T14:03:07;4.20;;;1.50;;
68484;SDS011;55472;50.060;21.960;2023-05-07T14:05:33;5.30;;;1.58;;
68484;SDS011;55472;50.060;21.960;2023-05-07T14:08:01;4.83;;;1.20;;
68484;SDS011;55472;50.060;21.960;2023-05-07T14:10:28;3.80;;;1.33;;
68484;SDS011;55472;50.060;21.960;2023-05-07T14:12:54;4.57;;;1.40;;
68484;SDS011;55472;50.060;21.960;2023-05-07T14:15:20;4.57;;;1.45;;
68484;SDS011;55472;50.060;21.960;2023-05-07T14:17:46;3.75;;;1.13;;
68484;SDS011;55472;50.060;21.960;2023-05-07T14:20:12;4.93;;;1.63;;
68484;SDS011;55472;50.060;21.960;2023-05-07T14:22:38;6.68;;;1.42;;
68484;SDS011;55472;50.060;21.960;2023-05-07T14:25:05;4.00;;;1.45;;
68484;SDS011;55472;50.060;21.960;2023-05-07T14:27:32;4.75;;;0.93;;
68484;SDS011;55472;50.060;21.960;2023-05-07T14:29:58;4.35;;;1.20;;
68484;SDS011;55472;50.060;21.960;2023-05-07T14:32:24;3.73;;;1.20;;
68484;SDS011;55472;50.060;21.960;2023-05-07T14:34:51;4.03;;;1.30;;
68484;SDS011;55472;50.060;21.960;2023-05-07T14:37:17;5.22;;;1.38;;
68484;SDS011;55472;50.060;21.960;2023-05-07T14:39:45;3.75;;;1.35;;
68484;SDS011;55472;50.060;21.960;2023-05-07T14:42:11;5.22;;;1.27;;
68484;SDS011;55472;50.060;21.960;2023-05-07T14:44:37;4.43;;;1.40;;
68484;SDS011;55472;50.060;21.960;2023-05-07T14:47:06;3.95;;;1.27;;
68484;SDS011;55472;50.060;21.960;2023-05-07T14:49:33;4.45;;;1.58;;
68484;SDS011;55472;50.060;21.960;2023-05-07T14:51:59;4.22;;;1.30;;